Terminal Aerodrome Forecast
Issued by NWS

Home | Current Version | Previous Version | Text Only | Print | Product List | Glossary On
Versions: 1 2 3 4 5 6 7 8 9 10 11 12
000
FTUS42 KTBW 301745
TAFRSW
TAF
KRSW 301745Z 3018/0118 00000KT P6SM FEW030 SCT250
     FM010300 VRB03KT P6SM FEW020 SCT250
     FM011600 20006KT P6SM SCT030 SCT250=

USA.gov is the U.S. government's official web portal to all federal, state and local government web resources and services.